Terminal Aerodrome Forecast
Issued by NWS Indianapolis, IN

Home | Current Version | Previous Version | Text Only | Print | Product List | Glossary On
Versions: 1 2 3 4 5 6 7 8 9 10 11 12 13 14 15 16 17 18 19 20 21 22 23 24 25 26
000
FTUS43 KIND 202300
TAFIND
TAF
KIND 202320Z 2100/2206 VRB03KT P6SM OVC025
     FM210900 13003KT 6SM BR OVC030
     FM211200 13003KT 5SM BR OVC030
     FM211600 13006KT P6SM SCT025 OVC050=

USA.gov is the U.S. government's official web portal to all federal, state and local government web resources and services.